UKLLUKBB

Guest
Details From UKLL - Lviv Intl
To UKBB - Boryspil
Flight Number -
Tags Decoded
Created
Modified
Stats Distance 270 nm / 500 km
Max Altitude 0 ft / 0 m
Waypoints 2
Social Downloads 1
Likes 0
Share VATSIM

Download

Looking for another format? Having issues loading an existing format? Contact us
Advertisement - Login to hide

Notes

Decoded

Route

UKLL UKBB

ID Type Via Altitude Latitude Longitude Leg Dist Tot Dist Heading (true) Name
O UKLL APT - 0 ft / 0 m 49.82083˚ 23.94389˚ - 0 nm - -
O UKBB APT - 0 ft / 0 m 50.36056˚ 30.90660˚ 270 nm 270 nm 80° / 86° -

Altitude Profile

Advertisement - Login to hide

Weather


0- 5 10 15 20 25 30 35+ Temperature / ° C

Clouds and Precipitation
Forecast for 2018-05-28 00:00 UTC. Updated an hour ago

Ground ~20,000 ft ~40,000 ft Winds

UKLL

Details ICAO UKLL (LWO)
Name LVIV INTL
Region Ukraine
Timezone Europe/Kiev (UTC+3.0)
Stats Elevation 1,071 ft / 326 m (AMSL)
Location 49.812638° 23.956111°
Runways 1
Magnetic Variation 6.154° E

METAR

UKLL 280000Z 09002MPS CAVOK 16/09 Q1024 R13/D NOSIG

Decode

TAF

Not found

Departure Runways

ID Width Length Bearing (true) Bearing (mag) Surface Threshold Offset Overrun Length
13 148 ft / 45 m 8,300 ft / 2,530 m 136.09° 129.94° Asphalt 0 ft / 0 m 160 ft / 49 m
31 148 ft / 45 m 8,300 ft / 2,530 m 316.11° 309.96° Asphalt 0 ft / 0 m 145 ft / 44 m

UKBB

Details ICAO UKBB (KBP)
Name Boryspil
Region Ukraine
Timezone Europe/Kiev (UTC+3.0)
Stats Elevation 421 ft / 128 m (AMSL)
Location 50.339472° 30.892903°
Runways 2
Magnetic Variation 7.722° E

METAR

UKBB 280000Z 35002MPS CAVOK 07/04 Q1025 R88/D NOSIG

Decode

TAF

TAF UKBB 272300Z 2800/2824 VRB02MPS CAVOK TX25/2813Z TN07/2802Z BECMG 2806/2808 06005G10MPS

Decode

Destination Runways

ID Width Length Bearing (true) Bearing (mag) Surface Threshold Offset Overrun Length
18L 197 ft / 60 m 13,152 ft / 4,009 m 182.72° 175.00° Concrete 0 ft / 0 m 295 ft / 90 m
18R 207 ft / 63 m 11,470 ft / 3,496 m 182.62° 174.90° Concrete 0 ft / 0 m 164 ft / 50 m
36L 207 ft / 63 m 11,470 ft / 3,496 m 2.62° 354.90° Concrete 0 ft / 0 m 164 ft / 50 m
36R 197 ft / 60 m 13,152 ft / 4,009 m 2.72° 355.00° Concrete 0 ft / 0 m 295 ft / 90 m

Approach Navaids

Runway Type Ident Frequency Range Bearing (true) Bearing (mag) Slope Elevation
18L Localiser IBI 111.30 MHz 18 nm / 33 km 182.76° 175.04° - 421 ft / 128 m (AMSL)
18L Glidescope IBI 111.30 MHz 10 nm / 19 km 177.00° 169.28° 3.00° 421 ft / 128 m (AMSL)
18R Localiser IKB 108.90 MHz 18 nm / 33 km 182.66° 174.94° - 417 ft / 127 m (AMSL)
18R Glidescope IKB 108.90 MHz 10 nm / 19 km 183.00° 175.28° 3.00° 421 ft / 128 m (AMSL)
36L Localiser IKE 110.50 MHz 18 nm / 33 km 2.66° 354.94° - 418 ft / 127 m (AMSL)
36L Glidescope IKE 110.50 MHz 10 nm / 19 km 357.00° 349.28° 3.00° 421 ft / 128 m (AMSL)
36R Localiser INO 109.70 MHz 18 nm / 33 km 2.76° 355.04° - 421 ft / 128 m (AMSL)
36R Glidescope INO 109.70 MHz 10 nm / 19 km 357.00° 349.28° 3.00° 421 ft / 128 m (AMSL)

Popular Alternatives